< < Back
Terminal Aerodrome Forecast


Current Version              Previous Versions:   1  2  3  4  5  6  7  8  9  

Terminal Aerodrome Forecast

433
FTUS42 KILM 011000 CCA
TAFFLO
TAF COR
KFLO 011042Z 0106/0206 20006KT P6SM SCT150
     FM011300 22006KT P6SM FEW020 SCT050=



Latest METAR

428
SAUS70 KWBC 011100 RRJ
MTRFLO
METAR KFLO 011053Z 00000KT 10SM CLR 23/22 A3012 RMK AO2 SLP195 T02280217
$


USA.gov is the U.S. government's official web portal to all federal, state and local government web resources and services.